Terminal Aerodrome Forecast
Issued by NWS Pocatello, ID

Home | Current Version | Previous Version | Text Only | Print | Product List | Glossary On
Versions: 1 2 3 4 5 6 7 8 9 10 11 12 13 14 15 16 17 18 19 20 21 22 23 24 25 26 27 28
000
FTUS45 KPIH 172325
TAFPIH
TAF
KPIH 172325Z 1800/1824 34010G18KT P6SM VCTS SCT060CB BKN100
     FM180200 20006KT P6SM SCT080
     FM181800 25014G24KT P6SM SCT060=

USA.gov is the U.S. government's official web portal to all federal, state and local government web resources and services.